createdAt,value
2022-12-24T00:00:12.255Z,11.07
2022-12-24T00:02:39.350Z,15.53
2022-12-24T00:05:07.066Z,12.07
2022-12-24T00:07:33.678Z,12.93
2022-12-24T00:10:00.377Z,10.97
2022-12-24T00:12:27.074Z,7.17
2022-12-24T00:14:53.738Z,12.07
2022-12-24T00:17:20.497Z,9.17
2022-12-24T00:19:47.690Z,11.27
2022-12-24T00:22:14.445Z,10.27
2022-12-24T00:24:41.269Z,11.93
2022-12-24T00:27:08.038Z,11.20
2022-12-24T00:29:34.763Z,10.40
2022-12-24T00:32:01.525Z,12.13
2022-12-24T00:34:28.490Z,15.03
2022-12-24T00:36:55.496Z,10.97
2022-12-24T00:39:22.158Z,10.53
2022-12-24T00:41:48.866Z,9.93
2022-12-24T00:44:15.761Z,11.37
2022-12-24T00:46:42.622Z,16.67
2022-12-24T00:49:12.264Z,13.73
2022-12-24T00:51:39.390Z,13.07
2022-12-24T00:54:07.167Z,11.87
2022-12-24T00:56:34.470Z,10.10
2022-12-24T00:59:01.423Z,14.57
2022-12-24T01:01:28.645Z,10.73
2022-12-24T01:04:14.176Z,10.60
2022-12-24T01:06:41.024Z,11.37
2022-12-24T01:09:08.006Z,10.10
2022-12-24T01:11:34.732Z,10.50
2022-12-24T01:14:01.340Z,15.30
2022-12-24T01:16:28.081Z,11.37
2022-12-24T01:18:54.966Z,13.60
2022-12-24T01:21:21.697Z,15.83
2022-12-24T01:23:49.032Z,17.70
2022-12-24T01:26:15.815Z,15.83
2022-12-24T01:28:42.711Z,12.73
2022-12-24T01:31:18.119Z,12.97
2022-12-24T01:33:46.467Z,17.17
2022-12-24T01:36:14.251Z,15.63
2022-12-24T01:38:41.971Z,16.70
2022-12-24T01:41:37.472Z,13.87
2022-12-24T01:44:23.133Z,12.00
2022-12-24T01:46:52.111Z,16.57
2022-12-24T01:49:19.163Z,18.07
2022-12-24T01:51:54.608Z,18.27
2022-12-24T01:54:27.602Z,15.80
2022-12-24T01:57:01.226Z,15.20
2022-12-24T01:59:29.310Z,17.63
2022-12-24T02:01:56.262Z,12.43
2022-12-24T02:04:36.789Z,15.93
2022-12-24T02:07:04.041Z,18.57
2022-12-24T02:09:30.845Z,16.90
2022-12-24T02:11:57.963Z,14.03
2022-12-24T02:14:26.730Z,20.13
2022-12-24T02:17:12.131Z,19.27
2022-12-24T02:20:17.402Z,19.33
2022-12-24T02:22:58.452Z,15.23
2022-12-24T02:25:49.552Z,15.03
2022-12-24T02:28:34.791Z,21.00
2022-12-24T02:31:08.932Z,17.53
2022-12-24T02:33:43.114Z,16.43
2022-12-24T02:36:15.433Z,18.57
2022-12-24T02:38:51.767Z,16.63
2022-12-24T02:41:26.675Z,17.43
2022-12-24T02:43:56.496Z,18.20
2022-12-24T02:46:27.982Z,18.70
2022-12-24T02:48:56.707Z,17.97
2022-12-24T02:51:25.280Z,17.03
2022-12-24T02:53:52.360Z,16.33
2022-12-24T02:56:40.724Z,13.80
2022-12-24T02:59:45.554Z,18.07
2022-12-24T03:02:40.237Z,14.10
2022-12-24T03:05:34.874Z,19.50
2022-12-24T03:08:16.109Z,19.50
2022-12-24T03:11:01.298Z,15.30
2022-12-24T03:13:28.978Z,21.63
2022-12-24T03:15:55.689Z,15.20
2022-12-24T03:18:27.794Z,18.33
2022-12-24T03:21:00.666Z,21.83
2022-12-24T03:23:28.081Z,20.90
2022-12-24T03:25:55.251Z,21.47
2022-12-24T03:28:26.638Z,19.07
2022-12-24T03:30:53.671Z,17.93
2022-12-24T03:33:21.217Z,20.73
2022-12-24T03:35:47.968Z,17.13
2022-12-24T03:38:14.679Z,20.97
2022-12-24T03:40:41.510Z,25.00
2022-12-24T03:43:08.199Z,23.97
2022-12-24T03:45:34.997Z,22.20
2022-12-24T03:48:01.794Z,18.80
2022-12-24T03:50:28.546Z,22.53
2022-12-24T03:52:55.473Z,25.20
2022-12-24T03:55:22.486Z,16.50
2022-12-24T03:57:49.511Z,22.83
2022-12-24T04:00:16.950Z,26.33
2022-12-24T04:02:43.696Z,23.03
2022-12-24T04:05:19.677Z,25.47
2022-12-24T04:07:46.806Z,21.57
2022-12-24T04:10:14.953Z,18.57
2022-12-24T04:12:41.716Z,23.27
2022-12-24T04:15:08.884Z,26.73
2022-12-24T04:17:35.887Z,17.83
2022-12-24T04:20:02.631Z,22.63
2022-12-24T04:22:29.338Z,23.03
2022-12-24T04:24:56.126Z,27.30
2022-12-24T04:27:28.240Z,24.30
2022-12-24T04:29:56.981Z,22.50
2022-12-24T04:32:26.024Z,28.87
2022-12-24T04:34:52.738Z,19.77
2022-12-24T04:37:19.376Z,19.93
2022-12-24T04:39:46.053Z,22.20
2022-12-24T04:42:12.779Z,23.43
2022-12-24T04:44:39.413Z,17.33
2022-12-24T04:47:06.032Z,19.57
2022-12-24T04:49:32.829Z,18.60
2022-12-24T04:51:59.538Z,22.10
2022-12-24T04:54:26.289Z,20.17
2022-12-24T04:56:53.028Z,19.93
2022-12-24T04:59:19.785Z,23.10
2022-12-24T05:01:46.548Z,21.77
2022-12-24T05:04:13.272Z,15.80
2022-12-24T05:06:39.973Z,25.07
2022-12-24T05:09:06.666Z,20.30
2022-12-24T05:11:33.347Z,20.63
2022-12-24T05:14:00.042Z,20.97
2022-12-24T05:16:27.014Z,20.87
2022-12-24T05:18:53.989Z,22.97
2022-12-24T05:21:23.734Z,20.03
2022-12-24T05:24:10.629Z,24.37
2022-12-24T05:26:44.139Z,18.53
2022-12-24T05:29:14.265Z,23.60
2022-12-24T05:31:42.335Z,19.90
2022-12-24T05:34:10.333Z,24.87
2022-12-24T05:36:37.376Z,23.30
2022-12-24T05:39:07.207Z,24.80
2022-12-24T05:41:36.721Z,17.20
2022-12-24T05:44:03.464Z,26.30
2022-12-24T05:46:30.134Z,22.87
2022-12-24T05:48:56.851Z,23.00
2022-12-24T05:51:23.510Z,19.20
2022-12-24T05:53:51.417Z,23.97
2022-12-24T05:56:22.661Z,18.67
2022-12-24T05:58:49.951Z,19.33
2022-12-24T06:01:16.977Z,21.63
2022-12-24T06:03:43.741Z,23.00
2022-12-24T06:06:13.395Z,22.30
2022-12-24T06:08:41.671Z,18.47
2022-12-24T06:11:10.852Z,20.37
2022-12-24T06:13:38.303Z,24.67
2022-12-24T06:16:07.251Z,23.60
2022-12-24T06:18:35.596Z,22.27
2022-12-24T06:21:03.340Z,20.63
2022-12-24T06:23:32.423Z,21.87
2022-12-24T06:26:01.073Z,22.47
2022-12-24T06:28:29.416Z,20.87
2022-12-24T06:31:02.338Z,21.50
2022-12-24T06:33:30.698Z,24.40
2022-12-24T06:35:57.421Z,27.23
2022-12-24T06:38:24.394Z,21.00
2022-12-24T06:40:51.198Z,23.30
2022-12-24T06:43:17.987Z,21.53
2022-12-24T06:45:46.693Z,24.97
2022-12-24T06:48:14.575Z,22.57
2022-12-24T06:50:41.661Z,19.60
2022-12-24T06:53:08.901Z,26.07
2022-12-24T06:55:35.661Z,25.07
2022-12-24T06:58:03.704Z,19.17
2022-12-24T07:00:30.481Z,22.00
2022-12-24T07:02:57.129Z,22.77
2022-12-24T07:05:23.880Z,16.67
2022-12-24T07:07:50.628Z,22.87
2022-12-24T07:10:18.451Z,25.63
2022-12-24T07:12:45.719Z,23.93
2022-12-24T07:15:13.446Z,23.23
2022-12-24T07:17:40.282Z,30.43
2022-12-24T07:20:10.122Z,25.50
2022-12-24T07:22:36.844Z,22.30
2022-12-24T07:25:03.766Z,28.07
2022-12-24T07:27:30.781Z,28.53
2022-12-24T07:29:57.452Z,21.50
2022-12-24T07:32:24.133Z,25.70
2022-12-24T07:34:50.797Z,28.77
2022-12-24T07:37:17.604Z,21.10
2022-12-24T07:39:44.951Z,26.13
2022-12-24T07:42:11.563Z,20.50
2022-12-24T07:44:38.982Z,30.73
2022-12-24T07:47:05.748Z,19.37
2022-12-24T07:49:32.509Z,25.93
2022-12-24T07:51:59.216Z,29.97
2022-12-24T07:54:25.860Z,22.30
2022-12-24T07:56:52.483Z,23.77
2022-12-24T07:59:19.188Z,24.33
2022-12-24T08:01:45.996Z,23.87
2022-12-24T08:04:13.339Z,27.03
2022-12-24T08:06:40.197Z,21.40
2022-12-24T08:09:06.915Z,26.67
2022-12-24T08:11:33.709Z,20.57
2022-12-24T08:14:00.362Z,21.63
2022-12-24T08:16:27.063Z,23.10
2022-12-24T08:18:53.803Z,25.17
2022-12-24T08:21:20.494Z,23.23
2022-12-24T08:23:47.519Z,27.87
2022-12-24T08:26:14.147Z,23.37
2022-12-24T08:28:41.175Z,19.97
2022-12-24T08:31:08.115Z,23.07
2022-12-24T08:33:35.198Z,26.57
2022-12-24T08:36:02.885Z,25.17
2022-12-24T08:38:29.829Z,25.87
2022-12-24T08:40:56.670Z,20.80
2022-12-24T08:43:25.453Z,19.53
2022-12-24T08:45:52.907Z,24.83
2022-12-24T08:48:20.044Z,24.00
2022-12-24T08:50:46.818Z,27.13
2022-12-24T08:53:13.835Z,23.37
2022-12-24T08:55:40.606Z,22.17
2022-12-24T08:58:07.376Z,23.23
2022-12-24T09:00:34.106Z,19.03
2022-12-24T09:03:00.968Z,24.10
2022-12-24T09:05:27.812Z,19.63
2022-12-24T09:07:54.478Z,27.17
2022-12-24T09:10:21.409Z,25.17
2022-12-24T09:12:48.120Z,19.77
2022-12-24T09:15:14.892Z,23.27
2022-12-24T09:17:41.620Z,20.43
2022-12-24T09:20:09.479Z,26.03
2022-12-24T09:22:38.021Z,22.77
2022-12-24T09:25:06.266Z,18.33
2022-12-24T09:27:33.239Z,24.27
2022-12-24T09:29:59.985Z,24.80
2022-12-24T09:32:26.719Z,19.03
2022-12-24T09:34:53.737Z,21.67
2022-12-24T09:37:20.750Z,20.10
2022-12-24T09:39:47.749Z,22.17
2022-12-24T09:42:32.901Z,18.30
2022-12-24T09:45:05.328Z,19.30
2022-12-24T09:47:39.851Z,21.13
2022-12-24T09:50:30.547Z,19.30
2022-12-24T09:53:00.524Z,21.40
2022-12-24T09:55:32.450Z,24.83
2022-12-24T09:58:02.173Z,22.43
2022-12-24T10:00:33.201Z,14.70
2022-12-24T10:02:59.998Z,24.50
2022-12-24T10:05:39.540Z,17.67
2022-12-24T10:08:21.540Z,22.37
2022-12-24T10:10:54.218Z,23.10
2022-12-24T10:13:32.898Z,24.47
2022-12-24T10:16:03.283Z,21.27
2022-12-24T10:18:47.284Z,16.97
2022-12-24T10:21:33.463Z,22.67
2022-12-24T10:24:24.884Z,21.67
2022-12-24T10:27:01.043Z,24.83
2022-12-24T10:29:31.359Z,24.10
2022-12-24T10:32:11.046Z,24.53
2022-12-24T10:35:02.221Z,19.43
2022-12-24T10:37:30.175Z,15.97
2022-12-24T10:40:02.608Z,23.53
2022-12-24T10:42:50.109Z,20.87
2022-12-24T10:45:20.627Z,17.90
2022-12-24T10:47:52.478Z,21.30
2022-12-24T10:50:29.758Z,22.53
2022-12-24T10:53:13.281Z,18.77
2022-12-24T10:55:40.233Z,19.20
2022-12-24T10:58:15.408Z,17.40
2022-12-24T11:00:42.473Z,18.10
2022-12-24T11:03:12.191Z,20.13
2022-12-24T11:05:40.101Z,15.23
2022-12-24T11:08:20.133Z,17.03
2022-12-24T11:10:58.083Z,16.03
2022-12-24T11:13:37.445Z,15.60
2022-12-24T11:16:05.553Z,16.57
2022-12-24T11:18:36.494Z,18.43
2022-12-24T11:21:04.939Z,18.20
2022-12-24T11:23:31.737Z,19.07
2022-12-24T11:25:59.125Z,13.90
2022-12-24T11:28:29.103Z,18.10
2022-12-24T11:31:21.132Z,16.63
2022-12-24T11:33:51.018Z,18.23
2022-12-24T11:36:22.879Z,16.17
2022-12-24T11:38:57.813Z,19.40
2022-12-24T11:41:26.250Z,19.27
2022-12-24T11:44:03.676Z,13.23
2022-12-24T11:46:47.067Z,17.13
2022-12-24T11:49:19.673Z,17.20
2022-12-24T11:52:20.948Z,19.73
2022-12-24T11:54:59.783Z,16.83
2022-12-24T11:57:34.660Z,19.47
2022-12-24T12:00:01.383Z,19.17
2022-12-24T12:02:37.312Z,16.83
2022-12-24T12:05:16.362Z,17.93
2022-12-24T12:07:47.110Z,16.20
2022-12-24T12:10:19.762Z,16.97
2022-12-24T12:13:15.758Z,19.17
2022-12-24T12:16:12.455Z,18.53
2022-12-24T12:18:42.169Z,18.17
2022-12-24T12:21:18.101Z,14.70
2022-12-24T12:23:52.425Z,24.93
2022-12-24T12:26:28.800Z,16.83
2022-12-24T12:29:04.353Z,16.40
2022-12-24T12:31:37.035Z,15.93
2022-12-24T12:34:11.759Z,15.67
2022-12-24T12:36:51.587Z,18.03
2022-12-24T12:39:18.429Z,17.13
2022-12-24T12:42:09.522Z,17.63
2022-12-24T12:45:06.074Z,21.20
2022-12-24T12:47:38.778Z,17.53
2022-12-24T12:50:14.816Z,20.00
2022-12-24T12:52:50.484Z,22.00
2022-12-24T12:55:38.625Z,17.73
2022-12-24T12:58:15.924Z,20.43
2022-12-24T13:00:47.321Z,16.90
2022-12-24T13:03:52.680Z,20.17
2022-12-24T13:07:10.570Z,13.47
2022-12-24T13:09:46.057Z,18.73
2022-12-24T13:12:39.831Z,21.33
2022-12-24T13:15:24.399Z,12.07
2022-12-24T13:18:09.406Z,15.37
2022-12-24T13:20:42.107Z,16.40
2022-12-24T13:23:22.128Z,15.10
2022-12-24T13:25:57.629Z,14.17
2022-12-24T13:28:24.481Z,16.47
2022-12-24T13:31:24.521Z,15.47
2022-12-24T13:33:53.944Z,14.87
2022-12-24T13:36:21.705Z,13.80
2022-12-24T13:38:53.634Z,14.80
2022-12-24T13:41:41.357Z,17.90
2022-12-24T13:44:13.002Z,12.63
2022-12-24T13:47:03.250Z,13.93
2022-12-24T13:49:42.647Z,13.23
2022-12-24T13:52:12.601Z,12.57
2022-12-24T13:54:51.439Z,14.83
2022-12-24T13:57:36.510Z,9.57
2022-12-24T14:00:29.276Z,13.53
2022-12-24T14:03:14.721Z,13.73
2022-12-24T14:05:44.855Z,13.63
2022-12-24T14:08:27.571Z,16.10
2022-12-24T14:11:09.734Z,11.87
2022-12-24T14:13:39.250Z,14.77
2022-12-24T14:16:11.931Z,12.87
2022-12-24T14:18:40.826Z,13.73
2022-12-24T14:21:15.512Z,12.47
2022-12-24T14:23:54.642Z,15.90
2022-12-24T14:26:35.420Z,11.80
2022-12-24T14:29:44.547Z,14.17
2022-12-24T14:32:16.201Z,14.27
2022-12-24T14:34:43.742Z,13.60
2022-12-24T14:37:15.776Z,15.53
2022-12-24T14:39:46.619Z,14.03
2022-12-24T14:42:51.278Z,13.37
2022-12-24T14:45:50.107Z,13.30
2022-12-24T14:48:36.348Z,14.33
2022-12-24T14:51:18.353Z,17.03
2022-12-24T14:54:20.068Z,13.67
2022-12-24T14:56:47.074Z,12.87
2022-12-24T14:59:19.506Z,17.03
2022-12-24T15:01:46.713Z,14.67
2022-12-24T15:04:18.165Z,12.43
2022-12-24T15:06:53.656Z,18.27
2022-12-24T15:09:26.077Z,13.57
2022-12-24T15:11:56.160Z,13.80
2022-12-24T15:14:25.132Z,13.83
2022-12-24T15:16:58.776Z,16.47
2022-12-24T15:19:37.743Z,16.37
2022-12-24T15:22:14.745Z,17.17
2022-12-24T15:24:46.474Z,18.67
2022-12-24T15:27:25.132Z,12.90
2022-12-24T15:29:56.103Z,11.10
2022-12-24T15:32:23.092Z,16.73
2022-12-24T15:34:52.701Z,16.23
2022-12-24T15:37:23.063Z,16.03
2022-12-24T15:40:10.779Z,12.53
2022-12-24T15:42:42.392Z,15.10
2022-12-24T15:45:27.184Z,14.33
2022-12-24T15:48:01.541Z,13.00
2022-12-24T15:50:33.903Z,17.27
2022-12-24T15:53:21.063Z,16.20
2022-12-24T15:56:27.481Z,17.47
2022-12-24T15:59:31.382Z,14.80
2022-12-24T16:02:27.387Z,15.90
2022-12-24T16:04:54.327Z,17.30
2022-12-24T16:07:25.564Z,14.90
2022-12-24T16:09:52.387Z,14.40
2022-12-24T16:12:23.412Z,17.43
2022-12-24T16:14:57.559Z,18.47
2022-12-24T16:17:26.808Z,13.97
2022-12-24T16:19:56.908Z,17.90
2022-12-24T16:22:34.900Z,16.17
2022-12-24T16:25:23.675Z,16.13
2022-12-24T16:27:50.630Z,19.40
2022-12-24T16:30:18.296Z,15.37
2022-12-24T16:32:46.331Z,15.90
2022-12-24T16:35:27.935Z,14.13
2022-12-24T16:37:55.474Z,13.47
2022-12-24T16:40:27.277Z,18.80
2022-12-24T16:43:15.333Z,13.40
2022-12-24T16:45:43.844Z,15.80
2022-12-24T16:48:19.000Z,14.37
2022-12-24T16:50:45.762Z,16.23
2022-12-24T16:53:17.750Z,16.07
2022-12-24T16:55:45.700Z,12.47
2022-12-24T16:58:13.623Z,16.03
2022-12-24T17:00:40.766Z,12.73
2022-12-24T17:03:07.854Z,14.53
2022-12-24T17:05:38.802Z,14.83
2022-12-24T17:08:06.253Z,13.00
2022-12-24T17:10:33.247Z,12.60
2022-12-24T17:13:00.890Z,12.67
2022-12-24T17:15:28.062Z,16.33
2022-12-24T17:17:55.028Z,15.87
2022-12-24T17:20:24.447Z,17.00
2022-12-24T17:22:52.038Z,14.83
2022-12-24T17:25:18.977Z,15.87
2022-12-24T17:27:45.774Z,13.47
2022-12-24T17:30:12.565Z,15.60
2022-12-24T17:32:39.670Z,17.50
2022-12-24T17:35:07.327Z,18.20
2022-12-24T17:37:34.096Z,16.07
2022-12-24T17:40:00.922Z,16.93
2022-12-24T17:42:27.714Z,13.63
2022-12-24T17:44:54.406Z,12.97
2022-12-24T17:47:21.109Z,14.63
2022-12-24T17:49:47.740Z,17.80
2022-12-24T17:52:14.447Z,18.10
2022-12-24T17:54:41.068Z,16.83
2022-12-24T17:57:07.782Z,16.77
2022-12-24T17:59:34.722Z,19.10
2022-12-24T18:02:01.541Z,13.63
2022-12-24T18:04:28.324Z,12.47
2022-12-24T18:07:01.685Z,11.27
2022-12-24T18:09:29.525Z,14.13
2022-12-24T18:11:56.245Z,19.40
2022-12-24T18:14:22.971Z,17.13
2022-12-24T18:16:49.893Z,15.70
2022-12-24T18:19:16.717Z,15.60
2022-12-24T18:21:43.673Z,17.13
2022-12-24T18:24:12.391Z,19.87
2022-12-24T18:26:39.328Z,14.00
2022-12-24T18:29:08.519Z,16.33
2022-12-24T18:31:35.951Z,12.00
2022-12-24T18:34:05.820Z,13.97
2022-12-24T18:36:33.023Z,14.53
2022-12-24T18:38:59.737Z,17.47
2022-12-24T18:41:29.400Z,15.30
2022-12-24T18:43:56.965Z,17.83
2022-12-24T18:46:26.558Z,16.93
2022-12-24T18:48:54.708Z,16.80
2022-12-24T18:51:23.360Z,16.07
2022-12-24T18:53:51.141Z,18.97
2022-12-24T18:56:20.864Z,20.20
2022-12-24T18:58:48.557Z,12.50
2022-12-24T19:01:20.923Z,16.00
2022-12-24T19:03:49.123Z,14.80
2022-12-24T19:06:16.619Z,23.37
2022-12-24T19:09:00.755Z,18.57
2022-12-24T19:11:30.906Z,20.20
2022-12-24T19:13:58.240Z,19.67
2022-12-24T19:16:25.844Z,17.03
2022-12-24T19:18:52.534Z,16.87
2022-12-24T19:21:19.347Z,17.23
2022-12-24T19:23:47.248Z,14.17
2022-12-24T19:26:16.082Z,15.00
2022-12-24T19:28:44.767Z,15.17
2022-12-24T19:31:14.554Z,19.93
2022-12-24T19:33:44.213Z,19.87
2022-12-24T19:36:14.250Z,18.07
2022-12-24T19:38:41.582Z,18.33
2022-12-24T19:41:13.336Z,17.10
2022-12-24T19:43:42.496Z,19.07
2022-12-24T19:46:10.687Z,17.47
2022-12-24T19:48:38.587Z,23.17
2022-12-24T19:51:08.896Z,17.07
2022-12-24T19:53:36.649Z,18.77
2022-12-24T19:56:04.249Z,20.80
2022-12-24T19:58:32.648Z,21.23
2022-12-24T20:01:15.221Z,21.17
2022-12-24T20:03:44.414Z,21.50
2022-12-24T20:06:12.503Z,17.73
2022-12-24T20:08:39.768Z,20.27
2022-12-24T20:11:08.393Z,19.87
2022-12-24T20:13:35.995Z,16.67
2022-12-24T20:16:08.451Z,19.30
2022-12-24T20:18:35.438Z,18.57
2022-12-24T20:21:04.575Z,19.80
2022-12-24T20:23:31.574Z,17.50
2022-12-24T20:26:00.235Z,17.67
2022-12-24T20:28:28.175Z,18.57
2022-12-24T20:30:55.595Z,15.00
2022-12-24T20:33:22.514Z,25.40
2022-12-24T20:35:49.258Z,21.67
2022-12-24T20:38:16.646Z,17.87
2022-12-24T20:40:44.702Z,18.50
2022-12-24T20:43:12.675Z,16.07
2022-12-24T20:45:39.422Z,23.27
2022-12-24T20:48:06.607Z,19.67
2022-12-24T20:50:33.571Z,20.50
2022-12-24T20:53:00.258Z,18.43
2022-12-24T20:55:26.921Z,16.03
2022-12-24T20:57:53.646Z,18.00
2022-12-24T21:00:20.908Z,15.80
2022-12-24T21:02:47.840Z,17.47
2022-12-24T21:05:15.276Z,14.63
2022-12-24T21:07:43.506Z,17.03
2022-12-24T21:10:12.315Z,13.50
2022-12-24T21:12:58.888Z,15.10
2022-12-24T21:15:39.533Z,17.60
2022-12-24T21:18:11.711Z,16.07
2022-12-24T21:20:40.383Z,16.57
2022-12-24T21:23:07.288Z,18.67
2022-12-24T21:25:34.196Z,21.00
2022-12-24T21:28:01.328Z,15.00
2022-12-24T21:30:28.336Z,21.00
2022-12-24T21:32:55.175Z,18.53
2022-12-24T21:35:21.895Z,15.13
2022-12-24T21:37:48.546Z,18.13
2022-12-24T21:40:15.436Z,17.03
2022-12-24T21:42:42.165Z,20.07
2022-12-24T21:45:09.635Z,20.77
2022-12-24T21:47:38.104Z,14.80
2022-12-24T21:50:28.243Z,14.27
2022-12-24T21:53:17.444Z,17.93
2022-12-24T21:55:44.285Z,16.13
2022-12-24T21:58:10.968Z,13.93
2022-12-24T22:00:37.658Z,15.83
2022-12-24T22:03:04.755Z,15.00
2022-12-24T22:05:34.076Z,17.37
2022-12-24T22:08:19.295Z,14.53
2022-12-24T22:11:04.697Z,13.53
2022-12-24T22:13:32.072Z,15.37
2022-12-24T22:15:58.910Z,14.77
2022-12-24T22:18:26.422Z,12.57
2022-12-24T22:20:53.138Z,16.90
2022-12-24T22:23:20.096Z,14.53
2022-12-24T22:25:47.260Z,12.30
2022-12-24T22:28:14.177Z,12.40
2022-12-24T22:30:42.641Z,14.77
2022-12-24T22:33:10.090Z,14.60
2022-12-24T22:35:39.514Z,14.60
2022-12-24T22:38:08.126Z,11.07
2022-12-24T22:40:34.832Z,10.23
2022-12-24T22:43:01.513Z,13.67
2022-12-24T22:45:28.278Z,14.33
2022-12-24T22:47:55.420Z,15.07
2022-12-24T22:50:23.519Z,12.10
2022-12-24T22:52:50.239Z,13.73
2022-12-24T22:55:16.920Z,14.80
2022-12-24T22:57:43.664Z,12.90
2022-12-24T23:00:17.781Z,11.37
2022-12-24T23:02:44.586Z,10.77
2022-12-24T23:05:14.653Z,14.53
2022-12-24T23:07:41.774Z,15.43
2022-12-24T23:10:08.860Z,11.10
2022-12-24T23:12:54.279Z,11.60
2022-12-24T23:15:20.955Z,13.93
2022-12-24T23:17:49.103Z,13.73
2022-12-24T23:20:16.292Z,13.77
2022-12-24T23:22:43.111Z,12.83
2022-12-24T23:25:10.057Z,11.20
2022-12-24T23:27:36.711Z,10.00
2022-12-24T23:30:03.997Z,10.33
2022-12-24T23:32:30.609Z,8.53
2022-12-24T23:34:57.294Z,8.70
2022-12-24T23:37:27.040Z,11.47
2022-12-24T23:39:57.792Z,7.53
2022-12-24T23:42:24.499Z,11.10
2022-12-24T23:44:51.407Z,10.40
2022-12-24T23:47:18.776Z,9.70
2022-12-24T23:49:45.515Z,11.10
2022-12-24T23:52:12.554Z,9.73
2022-12-24T23:54:39.301Z,10.20
2022-12-24T23:57:05.965Z,10.00
2022-12-24T23:59:34.073Z,9.43
